Terminal Aerodrome Forecast
Issued by NWS

Home | Current Version | Previous Version | Graphics & Text | Print | Product List | Glossary On
Versions: 1 2 3 4 5 6 7 8 9 10 11 12 13 14 15 16 17
000
FTUS43 KOAX 291452 AAA
TAFCDR
TAF AMD
KCDR 291452Z 2915/3012 01015G25KT 6SM -RA BR OVC007
     FM292300 05007KT P6SM BKN020
     FM300100 VRB04KT P6SM OVC015=

USA.gov is the U.S. government's official web portal to all federal, state and local government web resources and services.